Time;durP1;ratioP1;P1;durP2;ratioP2;P2;SDS_P1;SDS_P2;PMS_P1;PMS_P2;Temp;Humidity;BMP_temperature;BMP_pressure;BME280_temperature;BME280_humidity;BME280_pressure;Samples;Min_cycle;Max_cycle;Signal;HPM_P1;HPM_P2
2021/09/15 00:00:27;;;;;;;18.98;12.55;;;;;;;;;;5052473;28;20155;-83
2021/09/15 00:02:52;;;;;;;20.45;13.10;;;;;;;;;;5054210;28;20021;-84
2021/09/15 00:05:17;;;;;;;23.13;13.10;;;;;;;;;;5054142;28;20063;-83
2021/09/15 00:07:43;;;;;;;19.10;11.43;;;;;;;;;;5051789;28;20260;-84
2021/09/15 00:10:09;;;;;;;18.50;12.07;;;;;;;;;;5051835;28;20611;-83
2021/09/15 00:12:34;;;;;;;21.45;11.63;;;;;;;;;;5055063;28;20032;-84
2021/09/15 00:15:00;;;;;;;15.57;11.00;;;;;;;;;;5053517;28;20112;-83
2021/09/15 00:17:25;;;;;;;16.15;10.80;;;;;;;;;;5053841;28;20044;-84
2021/09/15 00:19:50;;;;;;;17.73;10.93;;;;;;;;;;5052721;28;20051;-83
2021/09/15 00:22:16;;;;;;;14.13;10.73;;;;;;;;;;5052590;28;20021;-84
2021/09/15 00:24:41;;;;;;;16.10;9.73;;;;;;;;;;5052015;28;20116;-84
2021/09/15 00:27:06;;;;;;;15.93;9.77;;;;;;;;;;5050963;28;20031;-83
2021/09/15 00:29:31;;;;;;;12.70;9.50;;;;;;;;;;5054513;28;20024;-83
2021/09/15 00:31:57;;;;;;;18.00;10.93;;;;;;;;;;5054205;28;20496;-83
2021/09/15 00:34:27;;;;;;;17.35;9.85;;;;;;;;;;5053439;28;20295;-84
2021/09/15 00:36:52;;;;;;;15.65;9.75;;;;;;;;;;5053035;28;20111;-84
2021/09/15 00:39:18;;;;;;;18.45;9.95;;;;;;;;;;5052888;28;20072;-84
2021/09/15 00:41:43;;;;;;;14.40;9.25;;;;;;;;;;5051569;28;20024;-83
2021/09/15 00:44:09;;;;;;;14.70;9.18;;;;;;;;;;5053860;28;20053;-84
2021/09/15 00:46:35;;;;;;;17.23;9.00;;;;;;;;;;5053051;28;20521;-84
2021/09/15 00:49:00;;;;;;;14.40;9.50;;;;;;;;;;5053850;28;20085;-83
2021/09/15 00:51:26;;;;;;;13.02;9.10;;;;;;;;;;5051237;28;20025;-84
2021/09/15 00:53:51;;;;;;;13.82;8.27;;;;;;;;;;5054393;28;20021;-84
2021/09/15 00:56:17;;;;;;;15.20;8.68;;;;;;;;;;5051275;28;20025;-84
2021/09/15 00:58:42;;;;;;;13.82;8.07;;;;;;;;;;5052388;28;20028;-84
2021/09/15 01:01:07;;;;;;;10.00;7.47;;;;;;;;;;5054277;28;20017;-84
2021/09/15 01:03:33;;;;;;;13.18;7.85;;;;;;;;;;5053112;28;20275;-84
2021/09/15 01:05:58;;;;;;;14.23;8.40;;;;;;;;;;5055247;28;20025;-84
2021/09/15 01:08:24;;;;;;;13.17;7.90;;;;;;;;;;5053082;28;20255;-84
2021/09/15 01:10:51;;;;;;;15.00;7.97;;;;;;;;;;5050512;28;20321;-84
2021/09/15 01:13:16;;;;;;;18.45;8.18;;;;;;;;;;5052387;28;20028;-83
2021/09/15 01:15:42;;;;;;;15.53;8.20;;;;;;;;;;5050203;28;20035;-84
2021/09/15 01:18:14;;;;;;;14.75;7.80;;;;;;;;;;5053017;28;20401;-84
2021/09/15 01:20:39;;;;;;;12.55;8.75;;;;;;;;;;5052964;28;20029;-83
2021/09/15 01:23:04;;;;;;;16.27;8.55;;;;;;;;;;5052812;28;20046;-83
2021/09/15 01:25:30;;;;;;;11.73;7.72;;;;;;;;;;5050623;28;20484;-83
2021/09/15 01:27:55;;;;;;;11.68;7.95;;;;;;;;;;5052851;28;20021;-84
2021/09/15 01:30:21;;;;;;;17.02;7.40;;;;;;;;;;5053018;28;20029;-84
2021/09/15 01:32:46;;;;;;;17.13;8.07;;;;;;;;;;5052643;28;20095;-84
2021/09/15 01:35:11;;;;;;;14.30;8.77;;;;;;;;;;5052652;28;20021;-84
2021/09/15 01:37:36;;;;;;;13.03;7.77;;;;;;;;;;5053166;28;20425;-84
2021/09/15 01:40:03;;;;;;;14.98;9.65;;;;;;;;;;5054776;28;20021;-84
2021/09/15 01:42:28;;;;;;;16.02;9.57;;;;;;;;;;5056907;28;20052;-84
2021/09/15 01:44:53;;;;;;;17.73;8.77;;;;;;;;;;5055528;28;20055;-83
2021/09/15 01:47:19;;;;;;;17.08;9.40;;;;;;;;;;5055811;28;20025;-84
2021/09/15 01:49:44;;;;;;;10.10;8.55;;;;;;;;;;5056530;28;20102;-84
2021/09/15 01:52:10;;;;;;;15.05;9.95;;;;;;;;;;5058911;28;20082;-83
2021/09/15 01:54:35;;;;;;;14.85;10.27;;;;;;;;;;5058354;28;20357;-83
2021/09/15 01:57:01;;;;;;;17.92;10.70;;;;;;;;;;5055008;28;20028;-84
2021/09/15 01:59:27;;;;;;;15.73;11.05;;;;;;;;;;5054306;28;20028;-83
2021/09/15 02:01:52;;;;;;;20.45;10.90;;;;;;;;;;5055394;28;20024;-83
2021/09/15 02:04:18;;;;;;;13.20;9.32;;;;;;;;;;5055297;28;20380;-83
2021/09/15 02:06:43;;;;;;;13.25;9.27;;;;;;;;;;5055279;28;20044;-84
2021/09/15 02:09:08;;;;;;;15.13;9.50;;;;;;;;;;5056020;28;20045;-84
2021/09/15 02:11:34;;;;;;;16.17;9.30;;;;;;;;;;5054851;28;20032;-83
2021/09/15 02:13:59;;;;;;;14.88;10.07;;;;;;;;;;5055715;28;20739;-84
2021/09/15 02:16:25;;;;;;;15.35;8.57;;;;;;;;;;5054544;28;20052;-83
2021/09/15 02:18:50;;;;;;;13.68;9.60;;;;;;;;;;5055532;28;20427;-84
2021/09/15 02:21:16;;;;;;;12.85;9.35;;;;;;;;;;5057138;28;20017;-83
2021/09/15 02:23:41;;;;;;;14.85;8.60;;;;;;;;;;5055169;28;20451;-83
2021/09/15 02:26:07;;;;;;;12.10;8.07;;;;;;;;;;5055840;28;20025;-84
2021/09/15 02:28:32;;;;;;;10.18;7.57;;;;;;;;;;5054857;28;20028;-84
2021/09/15 02:30:58;;;;;;;12.68;8.05;;;;;;;;;;5053848;28;20031;-84
2021/09/15 02:33:23;;;;;;;14.00;8.93;;;;;;;;;;5056388;28;20032;-84
2021/09/15 02:35:49;;;;;;;15.02;7.78;;;;;;;;;;5054577;28;20174;-83
2021/09/15 02:38:14;;;;;;;15.00;8.68;;;;;;;;;;5054355;28;20419;-84
2021/09/15 02:40:39;;;;;;;12.80;7.78;;;;;;;;;;5055518;28;20035;-83
2021/09/15 02:43:05;;;;;;;12.35;8.68;;;;;;;;;;5054816;28;20689;-84
2021/09/15 02:45:30;;;;;;;15.18;8.02;;;;;;;;;;5053555;28;20129;-83
2021/09/15 02:47:55;;;;;;;13.57;8.45;;;;;;;;;;5055087;28;20040;-84
2021/09/15 02:50:20;;;;;;;16.27;8.63;;;;;;;;;;5052341;28;20028;-83
2021/09/15 02:52:46;;;;;;;12.20;9.02;;;;;;;;;;5054157;28;20341;-83
2021/09/15 02:55:11;;;;;;;11.23;8.00;;;;;;;;;;5054012;28;20025;-84
2021/09/15 02:57:36;;;;;;;15.47;8.63;;;;;;;;;;5055826;28;20163;-84
2021/09/15 03:00:02;;;;;;;15.23;8.57;;;;;;;;;;5056292;28;20317;-84
2021/09/15 03:02:28;;;;;;;14.60;8.75;;;;;;;;;;5053877;28;20255;-84
2021/09/15 03:04:53;;;;;;;13.48;8.10;;;;;;;;;;5053645;28;20028;-83
2021/09/15 03:07:18;;;;;;;12.18;7.97;;;;;;;;;;5053118;28;20036;-83
2021/09/15 03:09:43;;;;;;;16.10;9.15;;;;;;;;;;5054973;28;20021;-83
2021/09/15 03:12:09;;;;;;;16.80;8.65;;;;;;;;;;5053762;28;20384;-84
2021/09/15 03:14:34;;;;;;;14.53;8.50;;;;;;;;;;5055176;28;20025;-84
2021/09/15 03:16:59;;;;;;;17.20;7.80;;;;;;;;;;5055991;28;20318;-84
2021/09/15 03:19:25;;;;;;;12.23;7.45;;;;;;;;;;5052481;28;20256;-84
2021/09/15 03:21:50;;;;;;;14.13;8.52;;;;;;;;;;5054069;28;20013;-83
2021/09/15 03:24:15;;;;;;;17.08;9.00;;;;;;;;;;5053083;28;20114;-83
2021/09/15 03:26:40;;;;;;;13.50;8.70;;;;;;;;;;5054090;28;20032;-84
2021/09/15 03:29:06;;;;;;;14.30;7.97;;;;;;;;;;5054605;28;20797;-84
2021/09/15 03:31:31;;;;;;;14.25;8.73;;;;;;;;;;5053476;28;20025;-84
2021/09/15 03:33:56;;;;;;;14.27;8.30;;;;;;;;;;5056940;28;20048;-84
2021/09/15 03:36:21;;;;;;;15.43;10.13;;;;;;;;;;5052053;28;20282;-83
2021/09/15 03:38:47;;;;;;;19.33;9.00;;;;;;;;;;5055240;28;20032;-83
2021/09/15 03:41:12;;;;;;;13.57;8.93;;;;;;;;;;5052539;28;20392;-84
2021/09/15 03:43:37;;;;;;;12.50;9.87;;;;;;;;;;5055044;28;20048;-83
2021/09/15 03:46:03;;;;;;;13.98;8.13;;;;;;;;;;5053805;28;20270;-84
2021/09/15 03:48:28;;;;;;;17.10;8.93;;;;;;;;;;5053850;28;20028;-83
2021/09/15 03:50:53;;;;;;;11.48;8.85;;;;;;;;;;5054019;28;20035;-83
2021/09/15 03:53:19;;;;;;;13.65;8.20;;;;;;;;;;5054235;28;20021;-84
2021/09/15 03:55:44;;;;;;;12.73;9.65;;;;;;;;;;5053329;28;20029;-84
2021/09/15 03:58:09;;;;;;;16.05;8.63;;;;;;;;;;5052589;28;20024;-84
2021/09/15 04:00:34;;;;;;;16.92;8.55;;;;;;;;;;5054145;28;20028;-84
2021/09/15 04:03:00;;;;;;;16.05;9.40;;;;;;;;;;5052662;28;20448;-84
2021/09/15 04:05:25;;;;;;;13.80;8.75;;;;;;;;;;5052268;28;20415;-83
2021/09/15 04:07:50;;;;;;;16.38;10.07;;;;;;;;;;5055538;28;20530;-84
2021/09/15 04:10:15;;;;;;;19.77;9.73;;;;;;;;;;5054151;28;20017;-84
2021/09/15 04:12:41;;;;;;;14.05;8.55;;;;;;;;;;5054400;28;20067;-83
2021/09/15 04:15:06;;;;;;;17.23;9.07;;;;;;;;;;5053615;28;20384;-84
2021/09/15 04:17:32;;;;;;;15.70;8.95;;;;;;;;;;5052168;28;20348;-84
2021/09/15 04:19:57;;;;;;;14.32;9.40;;;;;;;;;;5054534;28;20021;-83
2021/09/15 04:22:22;;;;;;;16.27;8.55;;;;;;;;;;5053931;28;20033;-84
2021/09/15 04:32:44;;;;;;;15.43;9.25;;;;;;;;;;5054954;28;20479;-84
2021/09/15 04:35:09;;;;;;;20.30;10.82;;;;;;;;;;5053904;28;20021;-84
2021/09/15 04:37:35;;;;;;;18.40;11.23;;;;;;;;;;5052884;28;20028;-84
2021/09/15 04:40:00;;;;;;;16.50;11.38;;;;;;;;;;5052294;28;20091;-84
2021/09/15 04:42:25;;;;;;;18.47;11.80;;;;;;;;;;5053418;28;20025;-84
2021/09/15 04:44:51;;;;;;;19.50;12.05;;;;;;;;;;5052607;28;20520;-84
2021/09/15 04:47:16;;;;;;;18.20;12.88;;;;;;;;;;5054302;28;20020;-83
2021/09/15 04:49:41;;;;;;;21.58;12.45;;;;;;;;;;5052419;28;20029;-83
2021/09/15 04:52:07;;;;;;;18.75;12.35;;;;;;;;;;5053116;28;20456;-84
2021/09/15 04:54:32;;;;;;;23.90;12.93;;;;;;;;;;5053009;28;20640;-84
2021/09/15 04:56:57;;;;;;;17.30;12.27;;;;;;;;;;5050632;28;20276;-83
2021/09/15 04:59:23;;;;;;;23.25;13.43;;;;;;;;;;5053281;28;20035;-84
2021/09/15 05:01:48;;;;;;;19.33;12.57;;;;;;;;;;5052211;28;20059;-84
2021/09/15 05:04:13;;;;;;;22.65;13.90;;;;;;;;;;5051431;28;20119;-84
2021/09/15 05:06:38;;;;;;;21.95;12.75;;;;;;;;;;5052289;28;20067;-83
2021/09/15 05:09:04;;;;;;;17.55;14.13;;;;;;;;;;5052736;28;20029;-84
2021/09/15 05:11:29;;;;;;;22.92;14.65;;;;;;;;;;5050042;28;20032;-84
2021/09/15 05:13:55;;;;;;;28.52;15.88;;;;;;;;;;5050686;28;20434;-83
2021/09/15 05:16:20;;;;;;;29.10;15.43;;;;;;;;;;5050691;28;20053;-84
2021/09/15 05:18:45;;;;;;;28.20;17.23;;;;;;;;;;5051820;28;20021;-84
2021/09/15 05:21:11;;;;;;;24.13;15.95;;;;;;;;;;5050955;28;20028;-84
2021/09/15 05:23:36;;;;;;;28.20;17.67;;;;;;;;;;5051706;28;20028;-83
2021/09/15 05:26:01;;;;;;;24.53;17.30;;;;;;;;;;5052827;28;20538;-83
2021/09/15 05:28:26;;;;;;;25.92;17.65;;;;;;;;;;5051331;28;20279;-83
2021/09/15 05:30:52;;;;;;;25.42;16.80;;;;;;;;;;5050353;28;20017;-83
2021/09/15 05:33:17;;;;;;;27.55;18.48;;;;;;;;;;5051002;28;20021;-84
2021/09/15 05:35:43;;;;;;;27.65;18.10;;;;;;;;;;5050918;28;20035;-83
2021/09/15 05:38:08;;;;;;;32.70;17.45;;;;;;;;;;5051807;28;20021;-83
2021/09/15 05:40:33;;;;;;;31.27;19.60;;;;;;;;;;5053892;28;20527;-84
2021/09/15 05:42:59;;;;;;;27.77;18.00;;;;;;;;;;5051924;28;20391;-84
2021/09/15 05:45:24;;;;;;;29.45;17.00;;;;;;;;;;5053891;28;20029;-84
2021/09/15 05:47:49;;;;;;;32.83;16.27;;;;;;;;;;5050073;28;20024;-83
2021/09/15 05:50:14;;;;;;;26.70;17.30;;;;;;;;;;5050705;28;20021;-83
2021/09/15 05:52:40;;;;;;;31.40;17.17;;;;;;;;;;5050808;28;20068;-84
2021/09/15 05:55:06;;;;;;;25.10;16.13;;;;;;;;;;5050207;28;20449;-84
2021/09/15 05:57:31;;;;;;;29.02;16.73;;;;;;;;;;5051981;28;20075;-83
2021/09/15 05:59:58;;;;;;;25.88;16.92;;;;;;;;;;5048544;28;20024;-84
2021/09/15 06:02:23;;;;;;;21.03;16.67;;;;;;;;;;5051928;28;20419;-84
2021/09/15 06:04:48;;;;;;;30.10;19.57;;;;;;;;;;5050208;28;20017;-83
2021/09/15 06:07:13;;;;;;;26.08;17.08;;;;;;;;;;5048634;28;20116;-85
2021/09/15 06:09:38;;;;;;;32.37;19.50;;;;;;;;;;5050516;28;20052;-83
2021/09/15 06:12:04;;;;;;;39.10;19.55;;;;;;;;;;5050348;28;20074;-84
2021/09/15 06:14:30;;;;;;;30.52;18.77;;;;;;;;;;5050268;28;20150;-83
2021/09/15 06:16:55;;;;;;;24.42;18.58;;;;;;;;;;5052791;28;20041;-83
2021/09/15 06:19:20;;;;;;;34.15;19.92;;;;;;;;;;5052897;28;20024;-83
2021/09/15 06:21:46;;;;;;;31.33;19.88;;;;;;;;;;5050025;28;20139;-83
2021/09/15 06:24:13;;;;;;;31.90;19.15;;;;;;;;;;5051373;28;20023;-83
2021/09/15 06:26:38;;;;;;;28.98;18.33;;;;;;;;;;5053670;28;20031;-84
2021/09/15 06:29:04;;;;;;;27.10;17.97;;;;;;;;;;5052636;28;20112;-83
2021/09/15 06:31:29;;;;;;;24.65;16.85;;;;;;;;;;5051563;28;20355;-83
2021/09/15 06:33:54;;;;;;;27.45;17.35;;;;;;;;;;5051644;28;20025;-83
2021/09/15 06:36:20;;;;;;;32.33;17.67;;;;;;;;;;5052345;28;20028;-84
2021/09/15 06:38:46;;;;;;;26.33;16.92;;;;;;;;;;5053075;28;20095;-83
2021/09/15 06:41:11;;;;;;;23.60;15.40;;;;;;;;;;5053887;28;20027;-84
2021/09/15 06:43:37;;;;;;;23.67;15.48;;;;;;;;;;5053412;28;20499;-83
2021/09/15 06:46:02;;;;;;;25.23;15.25;;;;;;;;;;5053223;28;20551;-83
2021/09/15 06:48:28;;;;;;;26.30;15.57;;;;;;;;;;5055326;28;20059;-83
2021/09/15 06:50:53;;;;;;;27.13;15.82;;;;;;;;;;5054343;28;20298;-83
2021/09/15 06:53:18;;;;;;;27.95;15.95;;;;;;;;;;5053518;28;20446;-83
2021/09/15 06:55:43;;;;;;;29.55;15.07;;;;;;;;;;5053184;28;20484;-84
2021/09/15 06:58:09;;;;;;;22.35;14.55;;;;;;;;;;5055055;28;20028;-84
2021/09/15 07:00:34;;;;;;;23.50;14.52;;;;;;;;;;5054933;28;20770;-84
2021/09/15 07:03:00;;;;;;;28.67;14.23;;;;;;;;;;5051149;28;20048;-84
2021/09/15 07:05:25;;;;;;;29.77;14.70;;;;;;;;;;5052277;28;20036;-83
2021/09/15 07:07:51;;;;;;;23.00;13.60;;;;;;;;;;5052795;28;20577;-83
2021/09/15 07:10:17;;;;;;;23.77;13.18;;;;;;;;;;5051253;28;20523;-83
2021/09/15 07:12:44;;;;;;;20.70;13.20;;;;;;;;;;5051577;28;20516;-83
2021/09/15 07:15:10;;;;;;;18.65;13.57;;;;;;;;;;5051872;28;20111;-83
2021/09/15 07:17:35;;;;;;;26.73;13.95;;;;;;;;;;5051226;28;20544;-84
2021/09/15 07:20:00;;;;;;;24.97;15.73;;;;;;;;;;5051543;28;20021;-83
2021/09/15 07:22:26;;;;;;;24.58;15.80;;;;;;;;;;5052239;28;20653;-84
2021/09/15 07:24:51;;;;;;;29.48;16.67;;;;;;;;;;5052036;28;20074;-84
2021/09/15 07:27:17;;;;;;;32.17;17.20;;;;;;;;;;5053502;28;20041;-84
2021/09/15 07:29:42;;;;;;;26.15;18.75;;;;;;;;;;5052808;28;20047;-84
2021/09/15 07:32:07;;;;;;;28.02;17.17;;;;;;;;;;5054758;28;20851;-83
2021/09/15 07:34:33;;;;;;;26.77;17.83;;;;;;;;;;5054048;28;20025;-83
2021/09/15 07:36:58;;;;;;;29.87;18.83;;;;;;;;;;5055316;28;20028;-83
2021/09/15 07:39:23;;;;;;;20.60;15.53;;;;;;;;;;5054683;28;20266;-83
2021/09/15 07:41:48;;;;;;;23.30;15.32;;;;;;;;;;5053758;28;20421;-83
2021/09/15 07:44:13;;;;;;;23.27;15.55;;;;;;;;;;5055620;28;20028;-83
2021/09/15 07:46:39;;;;;;;26.67;17.80;;;;;;;;;;5054625;28;20083;-84
2021/09/15 07:49:04;;;;;;;30.53;21.33;;;;;;;;;;5053810;28;20274;-83
2021/09/15 07:51:29;;;;;;;31.00;20.00;;;;;;;;;;5053483;28;20267;-83
2021/09/15 07:53:54;;;;;;;34.30;23.88;;;;;;;;;;5050977;28;20020;-83
2021/09/15 07:56:20;;;;;;;30.98;20.85;;;;;;;;;;5052030;28;20025;-83
2021/09/15 07:58:45;;;;;;;29.52;16.67;;;;;;;;;;5053006;28;20013;-83
2021/09/15 08:01:11;;;;;;;38.08;25.20;;;;;;;;;;5054931;28;20017;-84
2021/09/15 08:03:36;;;;;;;29.67;19.65;;;;;;;;;;5058877;28;20025;-83
2021/09/15 08:06:08;;;;;;;23.97;16.50;;;;;;;;;;5053131;28;20529;-83
2021/09/15 08:08:33;;;;;;;35.85;21.58;;;;;;;;;;5050353;28;20755;-84
2021/09/15 08:10:59;;;;;;;27.60;13.88;;;;;;;;;;5051114;28;20028;-83
2021/09/15 08:13:25;;;;;;;22.65;15.48;;;;;;;;;;5050597;28;20017;-84
2021/09/15 08:15:53;;;;;;;26.88;17.65;;;;;;;;;;5051632;28;20052;-84
2021/09/15 08:18:18;;;;;;;34.50;22.42;;;;;;;;;;5050754;28;20040;-84
2021/09/15 08:20:46;;;;;;;27.90;19.52;;;;;;;;;;5050947;28;20464;-83
2021/09/15 08:23:14;;;;;;;24.75;17.30;;;;;;;;;;5051688;28;20588;-82
2021/09/15 08:25:39;;;;;;;31.98;21.60;;;;;;;;;;5051860;28;20059;-82
2021/09/15 08:28:05;;;;;;;26.63;16.35;;;;;;;;;;5051497;28;20025;-81
2021/09/15 08:30:30;;;;;;;35.40;20.58;;;;;;;;;;5050525;28;20035;-82
2021/09/15 08:32:56;;;;;;;22.80;16.40;;;;;;;;;;5050769;28;20025;-81
2021/09/15 08:35:22;;;;;;;30.37;19.03;;;;;;;;;;5052537;28;20110;-82
2021/09/15 08:37:47;;;;;;;19.50;16.00;;;;;;;;;;5051418;28;20029;-82
2021/09/15 08:40:12;;;;;;;30.15;18.50;;;;;;;;;;5051899;28;20025;-82
2021/09/15 08:42:38;;;;;;;28.55;17.35;;;;;;;;;;5051643;28;20017;-82
2021/09/15 08:45:05;;;;;;;42.05;25.75;;;;;;;;;;5052709;28;20056;-82
2021/09/15 08:47:32;;;;;;;40.42;27.58;;;;;;;;;;5054159;28;20028;-82
2021/09/15 08:49:57;;;;;;;35.53;24.05;;;;;;;;;;5049632;28;20387;-82
2021/09/15 08:52:22;;;;;;;22.55;15.90;;;;;;;;;;5051403;28;20040;-82
2021/09/15 08:54:47;;;;;;;26.63;16.57;;;;;;;;;;5049910;28;20366;-82
2021/09/15 08:57:13;;;;;;;23.95;14.88;;;;;;;;;;5050521;28;20039;-82
2021/09/15 08:59:38;;;;;;;21.47;13.90;;;;;;;;;;5052085;28;20036;-82
2021/09/15 09:02:04;;;;;;;21.33;14.98;;;;;;;;;;5052393;28;20254;-82
2021/09/15 09:04:30;;;;;;;20.55;14.73;;;;;;;;;;5052427;28;20032;-82
2021/09/15 09:06:55;;;;;;;23.03;15.67;;;;;;;;;;5052702;28;20028;-82
2021/09/15 09:09:20;;;;;;;24.00;16.17;;;;;;;;;;5052718;28;20259;-82
2021/09/15 09:11:47;;;;;;;24.83;17.95;;;;;;;;;;5052469;28;20025;-81
2021/09/15 09:14:13;;;;;;;25.88;17.23;;;;;;;;;;5050214;28;20542;-83
2021/09/15 09:16:43;;;;;;;31.20;20.30;;;;;;;;;;5049637;28;20053;-84
2021/09/15 09:19:09;;;;;;;34.15;23.98;;;;;;;;;;5051493;28;20063;-84
2021/09/15 09:21:35;;;;;;;28.77;20.90;;;;;;;;;;5050564;28;20507;-84
2021/09/15 09:24:02;;;;;;;24.90;17.73;;;;;;;;;;5051961;28;20025;-84
2021/09/15 09:26:44;;;;;;;30.67;18.58;;;;;;;;;;5052122;28;20480;-84
2021/09/15 09:29:13;;;;;;;25.33;17.88;;;;;;;;;;5051224;28;20125;-84
2021/09/15 09:31:39;;;;;;;25.75;16.77;;;;;;;;;;5049896;28;20481;-84
2021/09/15 09:34:04;;;;;;;28.35;18.23;;;;;;;;;;5051174;28;20025;-84
2021/09/15 09:36:29;;;;;;;25.30;18.52;;;;;;;;;;5050680;28;20017;-84
2021/09/15 09:38:55;;;;;;;24.58;17.70;;;;;;;;;;5050714;28;20017;-84
2021/09/15 09:41:20;;;;;;;26.23;19.27;;;;;;;;;;5050724;28;20025;-84
2021/09/15 09:43:47;;;;;;;27.65;19.40;;;;;;;;;;5051236;28;20017;-84
2021/09/15 09:46:16;;;;;;;27.63;18.20;;;;;;;;;;5050382;28;20067;-85
2021/09/15 09:48:49;;;;;;;30.00;23.33;;;;;;;;;;5050726;28;20021;-84
2021/09/15 09:51:23;;;;;;;23.50;19.75;;;;;;;;;;5050521;28;20062;-84
2021/09/15 09:53:49;;;;;;;26.35;20.67;;;;;;;;;;5049558;28;20401;-84
2021/09/15 09:56:15;;;;;;;23.17;17.67;;;;;;;;;;5050877;28;20024;-84
2021/09/15 09:58:42;;;;;;;25.83;18.55;;;;;;;;;;5049495;28;20024;-84
2021/09/15 10:01:09;;;;;;;26.05;19.13;;;;;;;;;;5053951;28;20025;-84
2021/09/15 10:03:38;;;;;;;22.25;17.08;;;;;;;;;;5052777;28;20123;-84
2021/09/15 10:06:03;;;;;;;24.42;16.88;;;;;;;;;;5053075;28;20029;-84
2021/09/15 10:08:29;;;;;;;25.37;17.67;;;;;;;;;;5053631;28;20024;-84
2021/09/15 10:10:54;;;;;;;25.23;19.20;;;;;;;;;;5054709;28;20263;-84
2021/09/15 10:13:19;;;;;;;29.60;22.92;;;;;;;;;;5054020;28;20024;-84
2021/09/15 10:15:54;;;;;;;26.88;19.58;;;;;;;;;;5053724;28;20073;-84
2021/09/15 10:18:24;;;;;;;26.15;18.52;;;;;;;;;;5054663;28;20017;-84
2021/09/15 10:20:51;;;;;;;23.40;19.80;;;;;;;;;;5052776;28;20045;-84
2021/09/15 10:23:32;;;;;;;27.00;19.25;;;;;;;;;;5053023;28;20021;-84
2021/09/15 10:25:57;;;;;;;26.50;20.17;;;;;;;;;;5053410;28;20025;-84
2021/09/15 10:28:23;;;;;;;26.80;19.73;;;;;;;;;;5052384;28;20447;-84
2021/09/15 10:30:49;;;;;;;27.35;22.27;;;;;;;;;;5053427;28;20020;-84
2021/09/15 10:33:33;;;;;;;31.50;19.13;;;;;;;;;;5054404;28;20044;-84
2021/09/15 10:35:59;;;;;;;26.08;18.60;;;;;;;;;;5053405;28;20025;-84
2021/09/15 10:38:43;;;;;;;23.15;17.45;;;;;;;;;;5052443;28;20021;-84
2021/09/15 10:41:34;;;;;;;24.90;18.83;;;;;;;;;;5054136;28;20476;-84
2021/09/15 10:44:03;;;;;;;26.23;19.02;;;;;;;;;;5054172;28;20047;-85
2021/09/15 10:46:29;;;;;;;21.17;18.13;;;;;;;;;;5053585;28;20028;-85
2021/09/15 10:49:20;;;;;;;24.55;19.13;;;;;;;;;;5052048;28;20028;-84
2021/09/15 10:51:45;;;;;;;;;;;;;;;;;;5017362;28;20090;-84
2021/09/15 10:54:30;;;;;;;27.67;19.67;;;;;;;;;;5052041;28;20007;-84
2021/09/15 10:57:10;;;;;;;24.77;18.58;;;;;;;;;;5055389;28;20025;-84
2021/09/15 10:59:51;;;;;;;23.35;18.75;;;;;;;;;;5051789;28;20028;-85
2021/09/15 11:02:24;;;;;;;25.70;19.10;;;;;;;;;;5052277;28;20028;-84
2021/09/15 11:04:50;;;;;;;23.15;17.80;;;;;;;;;;5053574;28;20020;-84
2021/09/15 11:07:38;;;;;;;25.55;20.42;;;;;;;;;;5053066;28;20025;-83
2021/09/15 11:10:04;;;;;;;25.45;19.23;;;;;;;;;;5043996;28;20091;-84
2021/09/15 11:12:42;;;;;;;31.23;22.23;;;;;;;;;;5052020;28;20476;-84
2021/09/15 11:15:22;;;;;;;25.20;19.52;;;;;;;;;;5053820;28;20047;-84
2021/09/15 11:17:47;;;;;;;25.90;20.85;;;;;;;;;;5052738;28;20132;-84
2021/09/15 11:20:13;;;;;;;27.33;21.05;;;;;;;;;;5051116;28;20564;-84
2021/09/15 11:22:38;;;;;;;28.35;17.88;;;;;;;;;;5051411;28;20025;-84
2021/09/15 11:25:03;;;;;;;22.85;18.67;;;;;;;;;;5052993;28;20017;-84
2021/09/15 11:27:29;;;;;;;22.38;18.00;;;;;;;;;;5051728;28;20079;-84
2021/09/15 11:29:55;;;;;;;26.83;20.42;;;;;;;;;;5053227;28;20104;-84
2021/09/15 11:32:20;;;;;;;22.92;19.30;;;;;;;;;;5050862;28;20029;-85
2021/09/15 11:34:47;;;;;;;22.45;17.75;;;;;;;;;;5051502;28;20082;-84
2021/09/15 11:37:22;;;;;;;23.00;19.35;;;;;;;;;;5051330;28;20025;-84
2021/09/15 11:39:55;;;;;;;26.63;19.55;;;;;;;;;;5053405;28;20021;-84
2021/09/15 11:42:22;;;;;;;28.83;20.73;;;;;;;;;;5052243;28;20025;-84
2021/09/15 11:44:48;;;;;;;26.45;19.45;;;;;;;;;;5051776;28;20481;-84
2021/09/15 11:47:13;;;;;;;20.90;18.08;;;;;;;;;;5052711;28;20037;-84
2021/09/15 11:49:38;;;;;;;27.20;20.40;;;;;;;;;;5052046;28;20035;-84
2021/09/15 11:52:04;;;;;;;21.58;18.20;;;;;;;;;;5050735;28;20571;-84
2021/09/15 11:54:29;;;;;;;25.48;19.60;;;;;;;;;;5050741;28;20082;-84
2021/09/15 11:57:05;;;;;;;23.17;19.17;;;;;;;;;;5050936;28;20036;-84
2021/09/15 11:59:31;;;;;;;22.52;20.02;;;;;;;;;;5051964;28;20029;-84
2021/09/15 12:01:57;;;;;;;22.38;18.58;;;;;;;;;;5052476;28;20448;-84
2021/09/15 12:04:22;;;;;;;23.02;19.65;;;;;;;;;;5051934;28;20028;-84
2021/09/15 12:06:48;;;;;;;21.75;18.95;;;;;;;;;;5051316;28;20025;-84
2021/09/15 12:09:14;;;;;;;24.85;18.65;;;;;;;;;;5051017;28;20083;-84
2021/09/15 12:11:40;;;;;;;18.80;16.67;;;;;;;;;;5052881;28;20029;-84
2021/09/15 12:14:06;;;;;;;20.13;17.30;;;;;;;;;;5050341;28;20473;-84
2021/09/15 12:16:32;;;;;;;27.15;22.00;;;;;;;;;;5051339;28;20084;-84
2021/09/15 12:18:58;;;;;;;24.95;17.42;;;;;;;;;;5051273;28;20052;-84
2021/09/15 12:21:24;;;;;;;27.45;20.60;;;;;;;;;;5051907;28;20041;-85
2021/09/15 12:23:50;;;;;;;27.67;17.67;;;;;;;;;;5050468;28;20467;-84
2021/09/15 12:26:23;;;;;;;26.25;18.98;;;;;;;;;;5051002;28;20086;-84
2021/09/15 12:28:58;;;;;;;28.85;20.83;;;;;;;;;;5051810;28;20087;-84
2021/09/15 12:31:23;;;;;;;26.92;19.58;;;;;;;;;;5050428;28;20061;-84
2021/09/15 12:33:48;;;;;;;22.85;19.33;;;;;;;;;;5050654;28;20060;-84
2021/09/15 12:36:17;;;;;;;22.13;18.93;;;;;;;;;;5052269;28;20035;-84
2021/09/15 12:38:47;;;;;;;20.75;17.90;;;;;;;;;;5061089;28;20268;-84
2021/09/15 12:41:12;;;;;;;21.05;18.83;;;;;;;;;;5058385;28;20020;-85
2021/09/15 12:43:37;;;;;;;23.83;21.33;;;;;;;;;;5054096;28;20372;-84
2021/09/15 12:46:03;;;;;;;24.60;21.90;;;;;;;;;;5050178;28;20443;-84
2021/09/15 12:48:28;;;;;;;23.77;18.83;;;;;;;;;;5051059;28;20033;-84
2021/09/15 12:50:53;;;;;;;19.87;17.70;;;;;;;;;;5052133;28;20495;-84
2021/09/15 12:53:19;;;;;;;29.67;24.42;;;;;;;;;;5051549;28;20028;-85
2021/09/15 12:55:46;;;;;;;24.98;20.55;;;;;;;;;;5050588;28;20028;-85
2021/09/15 12:58:12;;;;;;;26.15;22.73;;;;;;;;;;5049484;28;20124;-84
2021/09/15 13:00:45;;;;;;;26.33;22.08;;;;;;;;;;5051492;28;20074;-84
2021/09/15 13:03:11;;;;;;;25.23;20.52;;;;;;;;;;5051176;28;20101;-84
2021/09/15 13:05:46;;;;;;;23.95;21.23;;;;;;;;;;5053099;28;20044;-84
2021/09/15 13:08:18;;;;;;;23.23;20.67;;;;;;;;;;5049038;28;20025;-84
2021/09/15 13:10:46;;;;;;;21.48;19.10;;;;;;;;;;5051852;28;20162;-84
2021/09/15 13:13:11;;;;;;;21.75;19.67;;;;;;;;;;5049524;28;20440;-84
2021/09/15 13:15:37;;;;;;;22.52;19.40;;;;;;;;;;5052221;28;20028;-84
2021/09/15 13:18:02;;;;;;;20.13;18.02;;;;;;;;;;5049483;28;20024;-84
2021/09/15 13:20:27;;;;;;;33.30;26.08;;;;;;;;;;5051310;28;20379;-84
2021/09/15 13:22:52;;;;;;;24.88;20.58;;;;;;;;;;5050256;28;20025;-84
2021/09/15 13:25:18;;;;;;;22.33;19.97;;;;;;;;;;5051129;28;20100;-84
2021/09/15 13:27:44;;;;;;;27.73;23.83;;;;;;;;;;5050465;28;20300;-84
2021/09/15 13:30:11;;;;;;;28.25;23.67;;;;;;;;;;5049367;28;20371;-84
2021/09/15 13:32:36;;;;;;;23.75;21.00;;;;;;;;;;5050280;28;20017;-85
2021/09/15 13:35:02;;;;;;;27.87;24.10;;;;;;;;;;5053873;28;20025;-84
2021/09/15 13:37:27;;;;;;;28.45;22.02;;;;;;;;;;5055415;28;20025;-84
2021/09/15 13:39:58;;;;;;;30.13;24.58;;;;;;;;;;5054098;28;20025;-84
2021/09/15 13:42:23;;;;;;;31.70;26.15;;;;;;;;;;5053167;28;20129;-84
2021/09/15 13:44:48;;;;;;;22.40;19.63;;;;;;;;;;5054079;28;20136;-84
2021/09/15 13:47:13;;;;;;;23.05;20.67;;;;;;;;;;5055296;28;20020;-85
2021/09/15 13:49:39;;;;;;;30.40;24.47;;;;;;;;;;5053721;28;20079;-84
2021/09/15 13:52:05;;;;;;;20.15;18.05;;;;;;;;;;5054728;28;20321;-84
2021/09/15 13:54:30;;;;;;;32.63;24.75;;;;;;;;;;5054255;28;20052;-84
2021/09/15 13:56:55;;;;;;;25.98;21.40;;;;;;;;;;5055712;28;20428;-85
2021/09/15 13:59:21;;;;;;;22.02;17.60;;;;;;;;;;5055485;28;20031;-84
2021/09/15 14:01:46;;;;;;;28.52;25.45;;;;;;;;;;5052590;28;20614;-84
2021/09/15 14:04:11;;;;;;;23.45;19.75;;;;;;;;;;5052666;28;20532;-84
2021/09/15 14:06:38;;;;;;;32.40;25.55;;;;;;;;;;5054945;28;20040;-84
2021/09/15 14:09:04;;;;;;;23.55;19.70;;;;;;;;;;5054997;28;20567;-84
2021/09/15 14:11:29;;;;;;;31.30;21.92;;;;;;;;;;5053254;28;20064;-84
2021/09/15 14:13:54;;;;;;;29.70;22.23;;;;;;;;;;5054707;28;20032;-84
2021/09/15 14:16:19;;;;;;;24.37;20.83;;;;;;;;;;5054337;28;20057;-84
2021/09/15 14:18:45;;;;;;;20.48;18.33;;;;;;;;;;5054474;28;20263;-84
2021/09/15 14:21:10;;;;;;;21.13;18.77;;;;;;;;;;5055637;28;20020;-84
2021/09/15 14:23:35;;;;;;;27.33;24.15;;;;;;;;;;5051862;28;20021;-84